createdAt,value
2022-10-23T00:04:45.086Z,15.68
2022-10-23T00:09:46.768Z,15.88
2022-10-23T00:14:51.548Z,15.73
2022-10-23T00:19:53.384Z,13.68
2022-10-23T00:24:57.579Z,14.20
2022-10-23T00:30:01.643Z,17.45
2022-10-23T00:35:08.031Z,15.68
2022-10-23T00:40:13.677Z,15.13
2022-10-23T00:45:31.253Z,16.75
2022-10-23T00:50:35.347Z,14.37
2022-10-23T00:55:41.253Z,18.70
2022-10-23T01:00:45.715Z,14.30
2022-10-23T01:05:52.087Z,14.20
2022-10-23T01:11:27.567Z,14.88
2022-10-23T01:16:56.197Z,12.55
2022-10-23T01:22:16.805Z,17.55
2022-10-23T01:27:33.377Z,18.15
2022-10-23T01:32:44.921Z,22.70
2022-10-23T01:37:53.956Z,15.30
2022-10-23T01:42:59.934Z,17.80
2022-10-23T01:48:07.745Z,15.95
2022-10-23T01:53:14.333Z,12.82
2022-10-23T01:58:21.171Z,12.90
2022-10-23T02:03:27.404Z,17.42
2022-10-23T02:08:31.569Z,13.77
2022-10-23T02:13:55.732Z,18.70
2022-10-23T02:19:07.436Z,13.37
2022-10-23T02:24:15.546Z,21.60
2022-10-23T02:29:25.997Z,19.52
2022-10-23T02:34:29.855Z,20.02
2022-10-23T02:39:36.926Z,19.10
2022-10-23T02:44:53.742Z,23.17
2022-10-23T02:49:57.719Z,23.77
2022-10-23T02:55:11.638Z,20.50
2022-10-23T03:00:23.613Z,28.13
2022-10-23T03:05:34.547Z,22.93
2022-10-23T03:10:41.717Z,17.50
2022-10-23T03:15:46.722Z,20.93
2022-10-23T03:20:53.698Z,22.23
2022-10-23T03:25:59.723Z,21.02
2022-10-23T03:31:15.248Z,20.60
2022-10-23T03:36:21.454Z,16.10
2022-10-23T03:41:28.846Z,20.57
2022-10-23T03:46:30.608Z,27.15
2022-10-23T03:51:37.045Z,23.60
2022-10-23T03:56:41.470Z,20.60
2022-10-23T04:01:44.818Z,14.83
2022-10-23T04:06:48.980Z,18.77
2022-10-23T04:11:54.243Z,16.20
2022-10-23T04:16:56.912Z,17.43
2022-10-23T04:21:59.760Z,24.93
2022-10-23T04:27:04.290Z,17.00
2022-10-23T04:32:08.351Z,22.87
2022-10-23T04:37:12.534Z,22.83
2022-10-23T04:42:14.484Z,23.77
2022-10-23T04:47:20.476Z,23.50
2022-10-23T04:52:33.623Z,16.90
2022-10-23T04:58:04.611Z,22.57
2022-10-23T05:03:07.242Z,28.20
2022-10-23T05:08:17.066Z,23.17
2022-10-23T05:13:41.558Z,17.70
2022-10-23T05:18:47.651Z,29.07
2022-10-23T05:23:49.883Z,25.93
2022-10-23T05:28:51.798Z,30.70
2022-10-23T05:33:55.419Z,32.00
2022-10-23T05:39:00.522Z,31.77
2022-10-23T05:44:05.650Z,34.37
2022-10-23T05:49:26.232Z,32.33
2022-10-23T05:55:09.447Z,31.17
2022-10-23T06:00:25.303Z,33.27
2022-10-23T06:05:52.386Z,35.63
2022-10-23T06:10:59.233Z,34.97
2022-10-23T06:16:11.732Z,35.63
2022-10-23T06:21:15.278Z,37.93
2022-10-23T06:26:19.586Z,38.93
2022-10-23T06:31:46.198Z,38.30
2022-10-23T06:36:48.074Z,34.53
2022-10-23T06:42:05.700Z,37.33
2022-10-23T06:47:33.538Z,36.70
2022-10-23T06:53:01.628Z,35.90
2022-10-23T06:58:10.614Z,35.03
2022-10-23T07:03:23.026Z,36.60
2022-10-23T07:08:25.032Z,36.60
2022-10-23T07:13:31.938Z,34.40
2022-10-23T07:18:46.846Z,33.75
2022-10-23T07:24:04.236Z,34.47
2022-10-23T07:29:11.698Z,47.13
2022-10-23T07:34:13.690Z,31.97
2022-10-23T07:39:19.039Z,26.92
2022-10-23T07:44:27.851Z,27.73
2022-10-23T07:49:30.905Z,23.23
2022-10-23T07:54:33.159Z,24.20
2022-10-23T07:59:39.014Z,24.88
2022-10-23T08:04:51.411Z,24.52
2022-10-23T08:10:01.441Z,26.95
2022-10-23T08:15:09.893Z,21.92
2022-10-23T08:20:25.987Z,20.10
2022-10-23T08:25:33.929Z,19.27
2022-10-23T08:30:38.503Z,18.95
2022-10-23T08:35:42.830Z,18.45
2022-10-23T08:40:48.659Z,19.17
2022-10-23T08:46:13.161Z,17.30
2022-10-23T08:51:44.817Z,17.40
2022-10-23T08:56:51.497Z,17.40
2022-10-23T09:02:01.297Z,16.13
2022-10-23T09:07:20.722Z,16.52
2022-10-23T09:12:26.390Z,15.93
2022-10-23T09:17:31.393Z,15.20
2022-10-23T09:22:33.366Z,13.52
2022-10-23T09:27:40.360Z,13.75
2022-10-23T09:32:43.582Z,14.10
2022-10-23T09:37:53.255Z,12.20
2022-10-23T09:43:03.922Z,12.50
2022-10-23T09:48:06.777Z,12.13
2022-10-23T09:53:18.870Z,10.57
2022-10-23T09:58:28.300Z,11.80
2022-10-23T10:03:37.488Z,11.57
2022-10-23T10:08:49.525Z,10.80
2022-10-23T10:14:08.396Z,10.02
2022-10-23T10:19:17.188Z,8.27
2022-10-23T10:24:28.861Z,9.48
2022-10-23T10:29:57.801Z,7.30
2022-10-23T10:35:26.502Z,6.95
2022-10-23T10:40:38.304Z,6.95
2022-10-23T10:45:47.911Z,5.88
2022-10-23T10:50:53.373Z,6.25
2022-10-23T10:56:07.561Z,5.68
2022-10-23T11:01:29.158Z,6.35
2022-10-23T11:06:36.088Z,6.30
2022-10-23T11:11:40.888Z,6.10
2022-10-23T11:16:46.924Z,5.68
2022-10-23T11:22:07.026Z,5.82
2022-10-23T11:27:28.506Z,5.22
2022-10-23T11:32:51.948Z,4.82
2022-10-23T11:38:11.958Z,5.03
2022-10-23T11:43:14.145Z,4.22
2022-10-23T11:48:21.472Z,4.47
2022-10-23T11:53:32.630Z,4.70
2022-10-23T11:58:50.954Z,4.03
2022-10-23T12:03:58.800Z,4.50
2022-10-23T12:09:31.584Z,3.78
2022-10-23T12:14:44.414Z,4.07
2022-10-23T12:19:50.221Z,3.78
2022-10-23T12:25:04.462Z,3.60
2022-10-23T12:30:19.288Z,4.60
2022-10-23T12:35:24.307Z,3.90
2022-10-23T12:40:30.141Z,4.22
2022-10-23T12:45:40.709Z,4.05
2022-10-23T12:50:50.685Z,3.50
2022-10-23T13:01:06.447Z,4.35
2022-10-23T13:06:13.115Z,4.40
2022-10-23T13:11:21.763Z,3.97
2022-10-23T13:16:28.894Z,4.15
2022-10-23T13:21:30.956Z,4.53
2022-10-23T13:26:45.283Z,4.45
2022-10-23T13:31:49.812Z,4.25
2022-10-23T13:37:20.614Z,4.05
2022-10-23T13:42:22.412Z,4.63
2022-10-23T13:47:26.862Z,4.55
2022-10-23T13:52:28.668Z,4.18
2022-10-23T13:57:32.791Z,4.50
2022-10-23T14:02:34.654Z,4.70
2022-10-23T14:07:36.582Z,4.15
2022-10-23T14:12:43.333Z,4.38
2022-10-23T14:17:49.483Z,4.47
2022-10-23T14:22:54.512Z,4.22
2022-10-23T14:27:56.580Z,4.28
2022-10-23T14:33:01.871Z,5.00
2022-10-23T14:38:05.798Z,6.30
2022-10-23T14:43:07.856Z,4.68
2022-10-23T14:48:15.960Z,4.22
2022-10-23T14:53:20.314Z,5.05
2022-10-23T14:58:24.632Z,4.53
2022-10-23T15:03:31.933Z,4.35
2022-10-23T15:08:34.192Z,4.32
2022-10-23T15:13:38.627Z,4.22
2022-10-23T15:18:42.510Z,4.68
2022-10-23T15:23:47.498Z,4.32
2022-10-23T15:28:54.946Z,4.88
2022-10-23T15:33:57.785Z,5.07
2022-10-23T15:39:00.866Z,4.72
2022-10-23T15:44:04.684Z,4.53
2022-10-23T15:49:08.546Z,4.18
2022-10-23T15:54:16.646Z,4.40
2022-10-23T15:59:25.357Z,4.35
2022-10-23T16:04:29.914Z,4.13
2022-10-23T16:09:38.770Z,4.15
2022-10-23T16:14:41.006Z,4.18
2022-10-23T16:19:42.911Z,4.40
2022-10-23T16:24:44.776Z,4.18
2022-10-23T16:29:53.156Z,3.92
2022-10-23T16:34:58.894Z,3.58
2022-10-23T16:40:05.190Z,3.97
2022-10-23T16:45:25.492Z,3.72
2022-10-23T16:50:30.286Z,3.42
2022-10-23T16:55:34.787Z,3.08
2022-10-23T17:00:38.881Z,3.47
2022-10-23T17:05:45.051Z,3.30
2022-10-23T17:10:52.145Z,3.22
2022-10-23T17:16:28.626Z,3.38
2022-10-23T17:21:41.463Z,3.22
2022-10-23T17:26:45.534Z,3.67
2022-10-23T17:31:51.116Z,2.70
2022-10-23T17:36:54.710Z,2.90
2022-10-23T17:42:00.987Z,3.10
2022-10-23T17:47:05.065Z,3.08
2022-10-23T17:52:14.465Z,3.10
2022-10-23T17:57:16.504Z,3.40
2022-10-23T18:02:23.651Z,3.85
2022-10-23T18:07:26.661Z,3.45
2022-10-23T18:12:31.627Z,3.33
2022-10-23T18:17:33.474Z,3.42
2022-10-23T18:22:38.723Z,3.20
2022-10-23T18:27:41.624Z,3.35
2022-10-23T18:32:47.294Z,3.25
2022-10-23T18:37:52.537Z,3.17
2022-10-23T18:42:56.463Z,3.10
2022-10-23T18:47:58.501Z,3.03
2022-10-23T18:53:06.380Z,3.63
2022-10-23T18:58:08.416Z,2.60
2022-10-23T19:03:12.011Z,2.58
2022-10-23T19:08:13.931Z,2.60
2022-10-23T19:13:17.463Z,2.70
2022-10-23T19:18:24.109Z,2.63
2022-10-23T19:23:30.519Z,3.17
2022-10-23T19:28:37.636Z,2.88
2022-10-23T19:33:42.146Z,2.92
2022-10-23T19:38:49.308Z,2.30
2022-10-23T19:43:51.159Z,2.40
2022-10-23T19:48:54.859Z,3.13
2022-10-23T19:53:57.718Z,2.67
2022-10-23T19:58:59.579Z,2.47
2022-10-23T20:04:01.630Z,2.38
2022-10-23T20:09:11.658Z,2.47
2022-10-23T20:14:17.171Z,1.90
2022-10-23T20:19:28.719Z,2.40
2022-10-23T20:24:30.483Z,2.10
2022-10-23T20:29:32.570Z,1.95
2022-10-23T20:34:39.456Z,2.47
2022-10-23T20:39:41.420Z,2.35
2022-10-23T20:44:45.295Z,2.17
2022-10-23T20:49:51.237Z,2.65
2022-10-23T20:54:55.291Z,2.20
2022-10-23T21:00:00.731Z,2.40
2022-10-23T21:05:07.798Z,2.60
2022-10-23T21:10:09.733Z,2.53
2022-10-23T21:15:11.925Z,3.15
2022-10-23T21:20:18.564Z,2.60
2022-10-23T21:25:20.374Z,2.60
2022-10-23T21:30:24.966Z,2.83
2022-10-23T21:35:30.146Z,2.90
2022-10-23T21:40:32.086Z,2.47
2022-10-23T21:45:35.439Z,2.40
2022-10-23T21:50:37.216Z,2.95
2022-10-23T21:55:39.312Z,2.72
2022-10-23T22:00:45.594Z,2.38
2022-10-23T22:05:47.444Z,2.85
2022-10-23T22:10:52.425Z,2.35
2022-10-23T22:15:58.685Z,2.55
2022-10-23T22:21:05.942Z,3.03
2022-10-23T22:26:25.186Z,2.08
2022-10-23T22:31:29.518Z,2.50
2022-10-23T22:36:37.757Z,2.15
2022-10-23T22:41:46.616Z,2.28
2022-10-23T22:46:53.259Z,2.17
2022-10-23T22:51:55.023Z,2.25
2022-10-23T22:57:00.617Z,2.35
2022-10-23T23:02:08.343Z,2.25
2022-10-23T23:07:12.980Z,2.60
2022-10-23T23:12:15.521Z,2.25
2022-10-23T23:17:17.341Z,3.13
2022-10-23T23:22:19.138Z,2.33
2022-10-23T23:27:20.950Z,2.75
2022-10-23T23:32:25.035Z,2.50
2022-10-23T23:37:26.859Z,2.63
2022-10-23T23:42:34.502Z,2.45
2022-10-23T23:47:41.610Z,2.47
2022-10-23T23:52:43.725Z,2.60
2022-10-23T23:57:57.870Z,2.72
